Melissa RD121's Hourly Summary for Sunday, July 8, 2018
Hour Temp
(f)
RH
(%)
Solar Rad.
(MJ/m2)
Rainfall
(in)
Wind
(mph)
7/8/2018 12:00 AM 77 72 0 0 0
7/8/2018 1:00 AM 76 77 0 0 0
7/8/2018 2:00 AM 75 80 0 0 0
7/8/2018 3:00 AM 74 81 0 0 0
7/8/2018 4:00 AM 73 88 0 0 0
7/8/2018 5:00 AM 73 90 0 0 0
7/8/2018 6:00 AM 72 91 0.04 0 0
7/8/2018 7:00 AM 74 82 0.44 0 1.35
7/8/2018 8:00 AM 77 74 1.09 0 5.97
7/8/2018 9:00 AM 81 66 1.72 0 3.56
7/8/2018 10:00 AM 83 58 2.39 0 4.01
7/8/2018 11:00 AM 86 52 2.86 0 6.25
7/8/2018 12:00 PM 89 46 3.39 0 8.18
7/8/2018 1:00 PM 89 43 2.56 0 7.24
7/8/2018 2:00 PM 91 39 3.09 0 9.03
7/8/2018 3:00 PM 91 39 2.55 0 10.18
7/8/2018 4:00 PM 91 38 2.25 0 9.47
7/8/2018 5:00 PM 92 37 1.8 0 6.8
7/8/2018 6:00 PM 91 37 1.05 0 7.65
7/8/2018 7:00 PM 90 37 0.47 0 4.59
7/8/2018 8:00 PM 86 41 0.05 0 6.02
7/8/2018 9:00 PM 80 61 0 0 1.55
7/8/2018 10:00 PM 78 73 0 0 0
7/8/2018 11:00 PM 78 73 0 0 0.06
Data Summary 81 61 25.75 0.00 3.83